Monday, April 21, 2014
07:24 UTC
  |  Log In   |  Register Free
Airport Search:

Petaluma Municipal Airport
(O69)

Petaluma Municipal Airport Diagram
No Airport Diagram Available

FAA data valid effective April 3, 2014 until May 29, 2014 (unless otherwise noted).

 
 
 
 
 
 
 
 
 
 
 
 
 
 

Current Aviation Weather for Petaluma Municipal Airport (O69)

The most recent METAR observation for KDVO was updated at: 0655 UTC
METAR Summary (Translated METAR)
KDVO
210655Z AUTO 10003KT 10SM CLR 10/07 A3007 RMK AO2
KAPC
(13.6 nm NE from KDVO)
210654Z AUTO 21006KT 10SM CLR 11/08 A3006 RMK AO2 SLP170 T01060083
TAF Summary (Translated TAF)
KSTS
(25 nm NW from KDVO)
210520Z 2106/2206 VRB04KT P6SM SCT200 FM212000 19008KT P6SM BKN120 FM220400 15003KT P6SM SCT030 OVC080
  Airport Weather Conditions for O69

Current weather conditions are
not available for O69


The nearest NOAA weather station
is at DVO, (7.2 nm SE from O69)
  
 Current Weather at DVO
50° F
Fair
North winds at 0.0 mph
DVO NOAA Radar

Pressure: 30.07 in
Humidity: 82%
Wind: Calm
Dew Point: 44.6°F
Visibility: 10.00 mi


Airport Weather Forecast for O69

Translated METAR and TAF for KDVO
Translated METAR for KDVO (0724 UTC 21 April 2014)
found at http://aviationweather.gov/adds/metars/
 
METAR text: KDVO 210715Z AUTO 00000KT 10SM CLR 10/08 A3008 RMK AO2
Conditions at: KDVO (NOVATO/GNOSS FLD, CA, US) observed 0715 UTC 21 April 2014
Temperature: 10.0°C (50°F)
Dewpoint: 8.0°C (46°F) [RH = 87%]
Pressure (altimeter): 30.08 inches Hg (1018.7 mb)
Winds: calm
Visibility: 10 or more miles (16+ km)
Ceiling: at least 12,000 feet AGL
Clouds: sky clear below 12,000 feet AGL
Weather: automated observation with no human augmentation;
there may or may not be significant weather present at this time
Translated TAF for KDVO

There is no translated TAF available for this airport

Find All Airport Services Find A Hotel Find A Rental Car Find A Golf Course Find A Restaurant $100 Hamburger



FBO's on the Field
FBO Company Facility Photos Services Transportation Aviation Fuel Prices: Prices include tax
Catering Weather Repair Courtesy Rental Type 100LL JetA JetA+ MOGAS 8087
 
Petaluma Municipal Airport

Currently rated 4.8 by 1 person
FS:Ascent
Last Updated: Mar-19
Login to update fuel prices
SS:
Contact Petaluma Municipal AirportMore FBO Information
 
Add another FBO Facility Photos Catering Weather Repair Courtesy Rental Type 100LL JetA JetA+ MOGAS 8087
Services Transportation Aviation Fuel Prices: Prices include tax


GlobalAir.com Airport Resource Center model-print
model-print
model-print
model-print